Time;durP1;ratioP1;P1;durP2;ratioP2;P2;SDS_P1;SDS_P2;PMS_P1;PMS_P2;Temp;Humidity;BMP_temperature;BMP_pressure;BME280_temperature;BME280_humidity;BME280_pressure;Samples;Min_cycle;Max_cycle;Signal;HPM_P1;HPM_P2
2023/04/30 00:00:08;;;;;;;22.50;12.35;;;11.70;99.90;;;;;;5055861;28;20017;-73
2023/04/30 00:02:34;;;;;;;17.67;11.02;;;11.70;99.90;;;;;;5057986;28;20028;-74
2023/04/30 00:04:59;;;;;;;18.80;10.85;;;11.60;99.90;;;;;;5056993;28;20017;-74
2023/04/30 00:07:25;;;;;;;22.55;11.30;;;11.50;99.90;;;;;;5057107;28;20023;-73
2023/04/30 00:09:51;;;;;;;21.90;11.80;;;11.50;99.90;;;;;;5056954;28;20102;-73
2023/04/30 00:12:16;;;;;;;19.83;11.70;;;11.40;99.90;;;;;;5057848;28;20100;-73
2023/04/30 00:14:42;;;;;;;21.10;11.30;;;11.30;99.90;;;;;;5056987;28;20021;-76
2023/04/30 00:17:07;;;;;;;21.98;12.10;;;11.30;99.90;;;;;;5057733;28;20033;-76
2023/04/30 00:19:33;;;;;;;20.80;11.63;;;11.30;99.90;;;;;;5057049;28;20021;-76
2023/04/30 00:22:00;;;;;;;20.50;11.60;;;11.30;99.90;;;;;;5057794;28;20031;-76
2023/04/30 00:24:26;;;;;;;18.45;10.65;;;11.20;99.90;;;;;;5057385;28;20113;-76
2023/04/30 00:26:52;;;;;;;18.55;11.85;;;11.20;99.90;;;;;;5056716;28;20029;-76
2023/04/30 00:29:17;;;;;;;21.52;12.10;;;11.10;99.90;;;;;;5056664;28;20028;-76
2023/04/30 00:31:43;;;;;;;20.23;11.48;;;11.10;99.90;;;;;;5056713;28;20044;-76
2023/04/30 00:34:09;;;;;;;21.33;11.18;;;11.10;99.90;;;;;;5057056;28;20032;-76
2023/04/30 00:36:34;;;;;;;23.73;11.95;;;11.10;99.90;;;;;;5056376;28;20032;-76
2023/04/30 00:39:00;;;;;;;18.75;10.68;;;11.10;99.90;;;;;;5056490;28;20017;-76
2023/04/30 00:41:27;;;;;;;19.23;10.80;;;11.00;99.90;;;;;;5056333;28;20029;-76
2023/04/30 00:43:52;;;;;;;20.40;11.40;;;11.00;99.90;;;;;;5057434;28;20057;-76
2023/04/30 00:46:18;;;;;;;19.73;11.00;;;11.00;99.90;;;;;;5056602;28;20020;-76
2023/04/30 00:48:43;;;;;;;23.55;11.48;;;10.90;99.90;;;;;;5056327;28;20094;-77
2023/04/30 00:51:10;;;;;;;17.35;10.63;;;11.00;99.90;;;;;;5057240;28;20021;-76
2023/04/30 00:53:38;;;;;;;21.40;10.52;;;10.90;99.90;;;;;;5056556;28;20083;-76
2023/04/30 00:56:08;;;;;;;18.92;10.63;;;10.90;99.90;;;;;;5056657;28;20136;-76
2023/04/30 00:58:34;;;;;;;16.25;10.43;;;10.90;99.90;;;;;;5056189;28;20079;-76
2023/04/30 01:01:00;;;;;;;16.40;10.20;;;10.90;99.90;;;;;;5056186;28;20025;-76
2023/04/30 01:03:27;;;;;;;21.25;11.45;;;10.80;99.90;;;;;;5057052;28;20031;-76
2023/04/30 01:05:53;;;;;;;18.83;11.05;;;10.80;99.90;;;;;;5057010;28;20049;-76
2023/04/30 01:08:19;;;;;;;23.80;10.80;;;10.70;99.90;;;;;;5056071;28;20032;-76
2023/04/30 01:11:24;;;;;;;22.95;10.45;;;10.70;99.90;;;;;;5056875;28;20025;-78
2023/04/30 01:14:01;;;;;;;16.65;10.80;;;10.60;99.90;;;;;;5045379;28;20067;-76
2023/04/30 01:16:31;;;;;;;17.45;10.13;;;10.50;99.90;;;;;;5056036;28;20064;-76
2023/04/30 01:19:02;;;;;;;21.13;10.85;;;10.50;99.90;;;;;;5056781;28;20013;-76
2023/04/30 01:21:29;;;;;;;20.23;11.30;;;10.50;99.90;;;;;;5056098;28;20017;-76
2023/04/30 01:24:10;;;;;;;19.05;11.65;;;10.40;99.90;;;;;;5056753;28;20017;-76
2023/04/30 01:27:05;;;;;;;21.15;11.52;;;10.40;99.90;;;;;;5055985;28;20028;-76
2023/04/30 01:29:33;;;;;;;18.77;10.75;;;10.30;99.90;;;;;;5055800;28;20021;-76
2023/04/30 01:31:59;;;;;;;18.13;12.02;;;10.30;99.90;;;;;;5056618;28;20094;-76
2023/04/30 01:34:24;;;;;;;18.35;10.77;;;10.30;99.90;;;;;;5055880;28;20098;-76
2023/04/30 01:36:58;;;;;;;18.65;11.80;;;10.20;99.90;;;;;;5055825;28;20029;-76
2023/04/30 01:39:49;;;;;;;17.15;10.63;;;10.20;99.90;;;;;;5055735;28;20151;-76
2023/04/30 01:42:28;;;;;;;22.45;12.60;;;10.10;99.90;;;;;;5055927;28;20056;-76
2023/04/30 01:45:01;;;;;;;23.55;11.82;;;10.20;99.90;;;;;;5055874;28;20070;-76
2023/04/30 01:47:45;;;;;;;19.88;11.20;;;10.20;99.90;;;;;;5055878;28;20072;-76
2023/04/30 01:50:37;;;;;;;21.63;11.15;;;10.20;99.90;;;;;;5059498;28;20029;-76
2023/04/30 01:53:08;;;;;;;23.00;12.07;;;10.20;99.90;;;;;;5059639;28;20021;-76
2023/04/30 01:55:35;;;;;;;22.75;11.95;;;10.10;99.90;;;;;;5059513;28;20083;-76
2023/04/30 01:58:04;;;;;;;20.77;11.93;;;10.10;99.90;;;;;;5059382;28;20075;-76
2023/04/30 02:00:30;;;;;;;24.95;12.00;;;10.00;99.90;;;;;;5060440;28;20063;-76
2023/04/30 02:02:56;;;;;;;18.85;11.25;;;9.90;99.90;;;;;;5060520;28;20033;-76
2023/04/30 02:05:22;;;;;;;24.80;11.40;;;9.90;99.90;;;;;;5060605;28;20025;-75
2023/04/30 02:07:49;;;;;;;18.67;11.20;;;9.80;99.90;;;;;;5059354;28;20021;-76
2023/04/30 02:10:16;;;;;;;21.67;11.68;;;9.80;99.90;;;;;;5060119;28;20021;-76
2023/04/30 02:12:42;;;;;;;28.10;12.85;;;9.80;99.90;;;;;;5060220;28;20044;-76
2023/04/30 02:15:08;;;;;;;22.75;12.45;;;9.80;99.90;;;;;;5059441;28;20017;-76
2023/04/30 02:17:34;;;;;;;18.48;11.13;;;9.90;99.90;;;;;;5060080;28;20079;-76
2023/04/30 02:20:00;;;;;;;20.88;10.60;;;9.80;99.90;;;;;;5059318;28;20025;-76
2023/04/30 02:22:25;;;;;;;17.90;10.88;;;9.70;99.90;;;;;;5062870;28;20123;-75
2023/04/30 02:24:54;;;;;;;22.88;11.80;;;9.60;99.90;;;;;;5059347;28;20044;-76
2023/04/30 02:27:22;;;;;;;24.35;12.10;;;9.50;99.90;;;;;;5059724;28;20021;-76
2023/04/30 02:29:47;;;;;;;19.63;11.57;;;9.50;99.90;;;;;;5059842;28;20017;-76
2023/04/30 02:32:13;;;;;;;22.33;11.45;;;9.40;99.90;;;;;;5059296;28;20044;-76
2023/04/30 02:34:39;;;;;;;20.02;10.85;;;9.40;99.90;;;;;;5059771;28;20013;-76
2023/04/30 02:37:05;;;;;;;22.05;11.95;;;9.50;99.90;;;;;;5060107;28;20067;-76
2023/04/30 02:39:31;;;;;;;20.02;11.25;;;9.50;99.90;;;;;;5058796;28;20021;-76
2023/04/30 02:41:56;;;;;;;22.52;11.52;;;9.50;99.90;;;;;;5059584;28;20070;-76
2023/04/30 02:44:22;;;;;;;23.70;11.63;;;9.50;99.90;;;;;;5058771;28;20104;-76
2023/04/30 02:46:48;;;;;;;28.17;12.77;;;9.50;99.90;;;;;;5059788;28;20125;-76
2023/04/30 02:49:13;;;;;;;26.33;13.00;;;9.50;99.90;;;;;;5059899;28;20037;-76
2023/04/30 02:51:39;;;;;;;26.35;14.23;;;9.50;99.90;;;;;;5058622;28;20028;-76
2023/04/30 02:54:05;;;;;;;24.73;14.18;;;9.50;99.90;;;;;;5059339;28;20025;-76
2023/04/30 02:56:30;;;;;;;25.55;13.48;;;9.60;99.90;;;;;;5059195;28;20075;-76
2023/04/30 02:58:56;;;;;;;23.98;13.25;;;9.60;99.90;;;;;;5059839;28;20025;-76
2023/04/30 03:01:21;;;;;;;30.98;14.63;;;9.70;99.90;;;;;;5057822;28;20017;-76
2023/04/30 03:03:47;;;;;;;25.48;13.95;;;9.70;99.90;;;;;;5059281;28;20075;-76
2023/04/30 03:06:12;;;;;;;27.17;14.75;;;9.70;99.90;;;;;;5058255;28;20120;-76
2023/04/30 03:08:38;;;;;;;25.23;13.50;;;9.80;99.90;;;;;;5058398;28;20063;-76
2023/04/30 03:11:04;;;;;;;24.60;13.50;;;9.80;99.90;;;;;;5058952;28;20047;-76
2023/04/30 03:13:29;;;;;;;29.15;13.90;;;9.80;99.90;;;;;;5058257;28;20029;-76
2023/04/30 03:16:05;;;;;;;27.70;13.88;;;9.80;99.90;;;;;;5059721;28;20147;-76
2023/04/30 03:18:31;;;;;;;28.15;13.77;;;9.70;99.90;;;;;;5059341;28;20092;-76
2023/04/30 03:20:56;;;;;;;25.13;12.73;;;9.60;99.90;;;;;;5059262;28;20052;-76
2023/04/30 03:23:22;;;;;;;21.52;12.43;;;9.60;99.90;;;;;;5057833;28;20021;-76
2023/04/30 03:25:48;;;;;;;25.95;14.18;;;9.50;99.90;;;;;;5060915;28;20025;-76
2023/04/30 03:28:14;;;;;;;26.35;12.75;;;9.50;99.90;;;;;;5061432;28;20079;-76
2023/04/30 03:30:40;;;;;;;25.92;13.68;;;9.50;99.90;;;;;;5058761;28;20092;-76
2023/04/30 03:33:06;;;;;;;28.48;13.40;;;9.50;99.90;;;;;;5057691;28;20028;-76
2023/04/30 03:35:32;;;;;;;28.02;13.60;;;9.40;99.90;;;;;;5058067;28;20025;-76
2023/04/30 03:37:58;;;;;;;25.15;12.90;;;9.30;99.90;;;;;;5058528;28;20017;-76
2023/04/30 03:40:24;;;;;;;30.25;13.52;;;9.30;99.90;;;;;;5057650;28;20112;-76
2023/04/30 03:42:49;;;;;;;21.50;12.75;;;9.30;99.90;;;;;;5058704;28;20025;-76
2023/04/30 03:45:15;;;;;;;26.90;12.55;;;9.40;99.90;;;;;;5057510;28;20032;-76
2023/04/30 03:47:41;;;;;;;24.90;11.98;;;9.30;99.90;;;;;;5057551;28;20021;-76
2023/04/30 03:50:08;;;;;;;27.83;13.18;;;9.30;99.90;;;;;;5057374;28;20040;-76
2023/04/30 03:52:35;;;;;;;22.80;12.18;;;9.30;99.90;;;;;;5057515;28;20036;-76
2023/04/30 03:55:01;;;;;;;23.40;12.57;;;9.30;99.90;;;;;;5058075;28;20025;-76
2023/04/30 03:57:27;;;;;;;25.73;12.63;;;9.30;99.90;;;;;;5057619;28;20021;-76
2023/04/30 03:59:52;;;;;;;24.60;13.27;;;9.20;99.90;;;;;;5057245;28;20060;-78
2023/04/30 04:02:18;;;;;;;22.73;12.85;;;9.20;99.90;;;;;;5057600;28;20043;-76
2023/04/30 04:04:43;;;;;;;24.63;12.65;;;9.10;99.90;;;;;;5057880;28;20017;-76
2023/04/30 04:07:10;;;;;;;26.38;12.70;;;9.10;99.90;;;;;;5057117;28;20066;-76
2023/04/30 04:09:35;;;;;;;25.10;13.43;;;9.10;99.90;;;;;;5057408;28;20028;-76
2023/04/30 04:12:01;;;;;;;23.33;12.15;;;9.10;99.90;;;;;;5056021;28;20028;-76
2023/04/30 04:14:27;;;;;;;26.38;12.15;;;9.10;99.90;;;;;;5057121;28;20078;-76
2023/04/30 04:16:52;;;;;;;23.52;12.63;;;9.00;99.90;;;;;;5057635;28;20032;-76
2023/04/30 04:19:18;;;;;;;18.88;11.40;;;9.00;99.90;;;;;;5056980;28;20017;-76
2023/04/30 04:21:43;;;;;;;25.88;13.52;;;8.90;99.90;;;;;;5057385;28;20084;-76
2023/04/30 04:24:09;;;;;;;25.75;13.52;;;8.90;99.90;;;;;;5057777;28;20075;-76
2023/04/30 04:26:36;;;;;;;22.83;12.25;;;8.90;99.90;;;;;;5057641;28;20020;-76
2023/04/30 04:29:05;;;;;;;22.02;12.77;;;8.90;99.90;;;;;;5056850;28;20033;-76
2023/04/30 04:31:30;;;;;;;24.67;13.05;;;8.90;99.90;;;;;;5061827;28;20025;-76
2023/04/30 04:34:01;;;;;;;21.67;11.60;;;8.90;99.90;;;;;;5056642;28;20036;-76
2023/04/30 04:36:27;;;;;;;23.52;12.27;;;8.90;99.90;;;;;;5056818;28;20024;-76
2023/04/30 04:38:56;;;;;;;24.40;13.15;;;8.70;99.90;;;;;;5056641;28;20032;-76
2023/04/30 04:41:23;;;;;;;26.20;12.98;;;8.70;99.90;;;;;;5056867;28;20017;-76
2023/04/30 04:43:48;;;;;;;23.73;12.27;;;8.80;99.90;;;;;;5056856;28;20048;-76
2023/04/30 04:46:16;;;;;;;20.27;11.50;;;9.00;99.90;;;;;;5058015;28;20029;-76
2023/04/30 04:48:42;;;;;;;27.70;13.65;;;9.00;99.90;;;;;;5056213;28;20032;-76
2023/04/30 04:51:08;;;;;;;21.60;12.30;;;8.90;99.90;;;;;;5056536;28;20068;-76
2023/04/30 04:53:34;;;;;;;19.10;11.05;;;8.90;99.90;;;;;;5057189;28;20025;-76
2023/04/30 04:56:00;;;;;;;28.00;11.50;;;9.10;99.90;;;;;;5056729;28;20035;-76
2023/04/30 04:58:25;;;;;;;24.00;12.48;;;9.10;99.90;;;;;;5057265;28;20021;-76
2023/04/30 05:00:51;;;;;;;20.98;11.60;;;9.10;99.90;;;;;;5057105;28;20025;-76
2023/04/30 05:03:19;;;;;;;21.98;10.95;;;9.00;99.90;;;;;;5056344;28;20036;-76
2023/04/30 05:05:45;;;;;;;21.10;10.38;;;9.10;99.90;;;;;;5056209;28;20025;-76
2023/04/30 05:08:11;;;;;;;21.05;11.98;;;9.10;99.90;;;;;;5056024;28;20116;-76
2023/04/30 05:10:36;;;;;;;23.63;11.65;;;9.20;99.90;;;;;;5056735;28;20083;-76
2023/04/30 05:13:02;;;;;;;20.52;10.35;;;9.20;99.90;;;;;;5057020;28;20025;-76
2023/04/30 05:15:27;;;;;;;18.83;9.98;;;9.20;99.90;;;;;;5056970;28;20033;-76
2023/04/30 05:17:53;;;;;;;20.75;11.10;;;9.10;99.90;;;;;;5056067;28;20017;-76
2023/04/30 05:20:18;;;;;;;20.08;10.45;;;9.00;99.90;;;;;;5055891;28;20017;-76
2023/04/30 05:22:44;;;;;;;21.55;11.43;;;9.20;99.90;;;;;;5056075;28;20028;-76
2023/04/30 05:25:09;;;;;;;18.33;10.45;;;9.20;99.90;;;;;;5060867;28;20029;-76
2023/04/30 05:27:35;;;;;;;18.90;11.00;;;9.30;99.90;;;;;;5061036;28;20021;-76
2023/04/30 05:30:01;;;;;;;23.42;10.55;;;9.30;99.90;;;;;;5060500;28;20021;-76
2023/04/30 05:32:26;;;;;;;24.55;10.55;;;9.40;99.90;;;;;;5060571;28;20029;-76
2023/04/30 05:34:52;;;;;;;21.05;10.93;;;9.50;99.90;;;;;;5066080;28;20025;-76
2023/04/30 05:37:19;;;;;;;18.13;9.65;;;9.60;99.90;;;;;;5059897;28;20025;-76
2023/04/30 05:39:45;;;;;;;20.95;9.82;;;9.70;99.90;;;;;;5060817;28;20017;-76
2023/04/30 05:42:10;;;;;;;18.77;9.98;;;9.70;99.90;;;;;;5059863;28;20024;-76
2023/04/30 05:44:36;;;;;;;19.08;10.25;;;9.70;99.90;;;;;;5060712;28;20079;-76
2023/04/30 05:47:02;;;;;;;21.77;10.07;;;9.70;99.90;;;;;;5059864;28;20063;-78
2023/04/30 05:49:28;;;;;;;16.95;9.27;;;9.80;99.90;;;;;;5112117;22;20043;-73
2023/04/30 05:51:53;;;;;;;22.38;10.25;;;9.90;99.90;;;;;;5120503;28;20066;-73
2023/04/30 05:54:19;;;;;;;16.73;10.13;;;9.90;99.90;;;;;;5120343;28;20051;-73
2023/04/30 05:56:45;;;;;;;17.23;10.05;;;9.90;99.90;;;;;;5121343;28;20163;-71
2023/04/30 05:59:10;;;;;;;20.40;10.77;;;9.90;99.90;;;;;;5120395;28;20023;-72
2023/04/30 06:01:36;;;;;;;20.25;9.85;;;9.90;99.90;;;;;;5120251;28;20016;-73
2023/04/30 06:04:03;;;;;;;21.33;9.80;;;10.00;99.90;;;;;;5121296;28;20087;-72
2023/04/30 06:06:30;;;;;;;19.80;10.25;;;10.00;99.90;;;;;;5121220;28;20102;-75
2023/04/30 06:08:56;;;;;;;20.63;8.75;;;10.00;99.90;;;;;;5120950;28;20070;-72
2023/04/30 06:11:24;;;;;;;19.50;9.10;;;10.10;99.90;;;;;;5120507;28;20020;-72
2023/04/30 06:13:50;;;;;;;15.73;8.90;;;10.10;99.90;;;;;;5120421;28;20024;-72
2023/04/30 06:16:15;;;;;;;20.10;9.88;;;10.10;99.90;;;;;;5120921;28;20031;-72
2023/04/30 06:18:41;;;;;;;19.08;10.65;;;10.20;99.90;;;;;;5120855;28;20040;-72
2023/04/30 06:21:07;;;;;;;18.13;9.13;;;10.30;99.90;;;;;;5119809;28;20134;-72
2023/04/30 06:23:32;;;;;;;18.17;9.75;;;10.30;99.90;;;;;;5121012;28;20024;-71
2023/04/30 06:25:58;;;;;;;20.63;10.68;;;10.30;99.90;;;;;;5119770;28;20052;-72
2023/04/30 06:28:24;;;;;;;19.60;10.20;;;10.30;99.90;;;;;;5120030;28;20031;-72
2023/04/30 06:30:50;;;;;;;17.27;9.38;;;10.30;99.90;;;;;;5120607;28;20023;-73
2023/04/30 06:33:16;;;;;;;18.80;9.68;;;10.40;99.90;;;;;;5120481;28;20035;-73
2023/04/30 06:35:42;;;;;;;17.25;8.70;;;10.50;99.90;;;;;;5118593;28;20020;-73
2023/04/30 06:38:07;;;;;;;17.42;9.25;;;10.50;99.90;;;;;;5120382;28;20100;-73
2023/04/30 06:40:33;;;;;;;15.68;8.93;;;10.50;99.90;;;;;;5120207;28;20024;-73
2023/04/30 06:42:59;;;;;;;20.48;9.38;;;10.60;99.90;;;;;;5119509;28;20026;-73
2023/04/30 06:45:24;;;;;;;17.27;9.88;;;10.60;99.90;;;;;;5120427;28;20031;-72
2023/04/30 06:47:50;;;;;;;17.55;9.10;;;10.60;99.90;;;;;;5119326;28;20054;-72
2023/04/30 06:50:16;;;;;;;16.42;8.52;;;10.60;99.90;;;;;;5120237;27;20035;-73
2023/04/30 06:52:41;;;;;;;14.13;9.10;;;10.70;99.90;;;;;;5119173;28;20027;-73
2023/04/30 06:55:08;;;;;;;14.45;8.77;;;10.80;99.90;;;;;;5119998;28;20028;-73
2023/04/30 06:57:36;;;;;;;16.15;8.98;;;10.90;99.90;;;;;;5120156;28;20068;-72
2023/04/30 07:00:03;;;;;;;17.23;8.50;;;10.90;99.90;;;;;;5119026;28;20020;-73
2023/04/30 07:02:28;;;;;;;14.15;8.48;;;11.00;99.90;;;;;;5118950;28;20015;-73
2023/04/30 07:04:54;;;;;;;15.57;9.45;;;11.00;99.90;;;;;;5119664;28;20027;-72
2023/04/30 07:07:19;;;;;;;15.48;8.02;;;11.10;99.90;;;;;;5118917;28;20019;-73
2023/04/30 07:09:45;;;;;;;13.95;7.45;;;11.10;99.90;;;;;;5118851;28;20024;-73
2023/04/30 07:12:12;;;;;;;12.85;7.55;;;11.20;99.90;;;;;;5118667;28;20051;-72
2023/04/30 07:14:38;;;;;;;15.63;8.05;;;11.10;99.90;;;;;;5119685;28;20027;-74
2023/04/30 07:17:03;;;;;;;14.60;7.80;;;11.20;99.90;;;;;;5119006;28;20020;-73
2023/04/30 07:19:29;;;;;;;13.10;7.22;;;11.40;99.90;;;;;;5119646;28;20020;-73
2023/04/30 07:21:54;;;;;;;13.20;7.32;;;11.50;99.90;;;;;;5118718;28;20016;-73
2023/04/30 07:24:20;;;;;;;11.82;6.63;;;11.50;99.90;;;;;;5118632;28;20019;-73
2023/04/30 07:26:45;;;;;;;13.73;6.72;;;11.50;99.90;;;;;;5118621;28;20024;-73
2023/04/30 07:29:11;;;;;;;13.07;6.82;;;11.50;99.90;;;;;;5119625;28;20091;-73
2023/04/30 07:31:36;;;;;;;15.57;6.68;;;11.60;99.90;;;;;;5118828;28;20045;-73
2023/04/30 07:34:02;;;;;;;9.10;6.03;;;11.70;99.90;;;;;;5118448;28;20027;-73
2023/04/30 07:36:28;;;;;;;13.80;7.03;;;11.70;99.90;;;;;;5118298;28;20032;-73
2023/04/30 07:38:53;;;;;;;13.35;6.78;;;11.70;99.90;;;;;;5119360;28;20031;-73
2023/04/30 07:41:19;;;;;;;12.52;7.30;;;11.70;99.90;;;;;;5118228;28;20042;-73
2023/04/30 07:43:44;;;;;;;12.35;7.15;;;11.80;99.90;;;;;;5118300;28;20026;-73
2023/04/30 07:46:10;;;;;;;12.23;6.70;;;11.80;99.90;;;;;;5118018;28;20042;-73
2023/04/30 07:48:36;;;;;;;10.43;6.88;;;11.90;99.90;;;;;;5118353;28;20024;-72
2023/04/30 07:51:03;;;;;;;13.10;7.00;;;11.90;99.90;;;;;;5118264;28;20019;-72
2023/04/30 07:53:29;;;;;;;10.75;6.57;;;12.10;99.90;;;;;;5117981;28;20024;-72
2023/04/30 07:55:54;;;;;;;13.23;6.63;;;12.10;99.90;;;;;;5117891;28;20076;-73
2023/04/30 07:58:20;;;;;;;16.55;7.50;;;12.30;99.90;;;;;;5118089;28;20020;-73
2023/04/30 08:00:46;;;;;;;13.48;6.97;;;12.30;99.90;;;;;;5117848;28;20023;-73
2023/04/30 08:03:12;;;;;;;10.57;7.22;;;12.40;99.90;;;;;;5118038;28;20020;-73
2023/04/30 08:05:37;;;;;;;11.02;6.70;;;12.30;99.90;;;;;;5117861;28;20031;-73
2023/04/30 08:08:03;;;;;;;17.38;7.35;;;12.30;99.90;;;;;;5118109;28;20016;-73
2023/04/30 08:10:29;;;;;;;11.23;6.43;;;12.40;99.90;;;;;;5117594;28;20087;-73
2023/04/30 08:12:54;;;;;;;14.57;6.85;;;12.50;99.90;;;;;;5118494;28;20043;-73
2023/04/30 08:15:20;;;;;;;21.75;7.68;;;12.60;99.90;;;;;;5118329;28;20110;-73
2023/04/30 08:17:48;;;;;;;13.82;6.72;;;12.60;99.90;;;;;;5118489;28;20020;-73
2023/04/30 08:20:14;;;;;;;12.85;6.95;;;12.70;99.90;;;;;;5117443;28;20043;-73
2023/04/30 08:22:40;;;;;;;12.07;7.30;;;12.70;99.90;;;;;;5117450;28;20016;-73
2023/04/30 08:25:06;;;;;;;16.17;7.38;;;12.80;99.90;;;;;;5118256;28;20024;-73
2023/04/30 08:27:32;;;;;;;11.77;7.03;;;12.90;99.90;;;;;;5118035;28;20024;-73
2023/04/30 08:29:58;;;;;;;11.93;6.40;;;13.00;99.90;;;;;;5118558;28;20027;-73
2023/04/30 08:32:23;;;;;;;11.55;6.50;;;13.10;99.90;;;;;;5118124;28;20065;-74
2023/04/30 08:34:49;;;;;;;11.20;6.63;;;13.20;99.90;;;;;;5117524;28;20065;-73
2023/04/30 08:37:15;;;;;;;13.82;6.82;;;13.40;99.90;;;;;;5117058;28;20031;-73
2023/04/30 08:39:40;;;;;;;9.23;6.20;;;13.40;99.90;;;;;;5118307;28;20016;-73
2023/04/30 08:42:08;;;;;;;11.90;6.45;;;13.30;99.90;;;;;;5117339;28;20027;-73
2023/04/30 08:44:38;;;;;;;9.40;5.40;;;13.40;99.90;;;;;;5117113;28;20020;-73
2023/04/30 08:47:06;;;;;;;8.10;5.15;;;13.40;99.90;;;;;;5117937;28;20069;-74
2023/04/30 08:49:32;;;;;;;10.85;5.85;;;13.50;99.90;;;;;;5116977;28;20062;-73
2023/04/30 08:51:59;;;;;;;7.75;5.00;;;13.60;99.90;;;;;;5118231;28;20031;-73
2023/04/30 08:54:27;;;;;;;10.90;5.47;;;13.70;99.90;;;;;;5117258;28;20023;-73
2023/04/30 08:56:52;;;;;;;8.13;4.93;;;13.90;99.90;;;;;;5116902;28;20115;-73
2023/04/30 08:59:18;;;;;;;11.80;4.95;;;14.00;99.90;;;;;;5117405;28;20084;-73
2023/04/30 09:01:44;;;;;;;11.95;5.28;;;14.10;99.90;;;;;;5117686;28;20023;-73
2023/04/30 09:04:09;;;;;;;15.27;5.80;;;14.00;99.90;;;;;;5116796;28;20043;-73
2023/04/30 09:06:35;;;;;;;9.23;4.35;;;14.10;99.90;;;;;;5116825;28;20045;-73
2023/04/30 09:09:15;;;;;;;6.68;4.10;;;14.20;99.90;;;;;;5117562;28;20028;-73
2023/04/30 09:11:41;;;;;;;6.57;3.70;;;14.30;99.90;;;;;;5117694;28;20143;-74
2023/04/30 09:14:07;;;;;;;6.38;3.90;;;14.30;99.90;;;;;;5116639;28;20024;-74
2023/04/30 09:16:49;;;;;;;9.43;4.30;;;14.40;99.90;;;;;;5116917;28;20020;-74
2023/04/30 09:19:29;;;;;;;8.90;4.55;;;14.50;99.90;;;;;;5116811;28;20020;-73
2023/04/30 09:21:56;;;;;;;12.02;3.78;;;14.60;99.90;;;;;;5116955;28;20024;-74
2023/04/30 09:24:22;;;;;;;6.85;4.00;;;14.70;99.90;;;;;;5116637;28;20047;-75
2023/04/30 09:26:48;;;;;;;6.15;3.45;;;14.70;99.90;;;;;;5117563;28;20028;-74
2023/04/30 09:29:14;;;;;;;5.82;3.03;;;14.80;99.90;;;;;;5116576;28;20161;-74
2023/04/30 09:31:43;;;;;;;5.30;3.25;;;15.00;99.90;;;;;;5117441;28;20051;-73
2023/04/30 09:34:09;;;;;;;3.53;2.42;;;15.00;99.90;;;;;;5116583;28;20110;-75
2023/04/30 09:36:35;;;;;;;5.45;2.47;;;15.00;99.90;;;;;;5116681;28;20110;-73
2023/04/30 09:39:12;;;;;;;10.48;3.38;;;15.30;99.90;;;;;;5116523;28;20041;-73
2023/04/30 09:41:38;;;;;;;7.28;2.30;;;15.50;99.90;;;;;;5116667;28;20016;-73
2023/04/30 09:44:04;;;;;;;4.97;2.25;;;15.60;99.90;;;;;;5116607;28;20016;-74
2023/04/30 09:46:31;;;;;;;4.65;2.20;;;15.70;99.90;;;;;;5116376;28;20028;-74
2023/04/30 09:48:59;;;;;;;4.47;2.38;;;15.80;99.90;;;;;;5116526;28;20066;-73
2023/04/30 09:51:25;;;;;;;3.05;2.13;;;16.00;99.90;;;;;;5116714;28;20031;-73
2023/04/30 09:53:52;;;;;;;5.03;2.35;;;16.00;99.90;;;;;;5116636;28;20019;-73
2023/04/30 09:56:25;;;;;;;3.70;2.33;;;16.10;99.90;;;;;;5116321;28;20058;-73
2023/04/30 09:58:53;;;;;;;3.67;2.40;;;16.10;99.90;;;;;;5116353;28;20020;-73
2023/04/30 10:01:28;;;;;;;3.17;2.88;;;16.20;99.90;;;;;;5117224;28;20023;-73
2023/04/30 10:03:55;;;;;;;3.17;2.17;;;16.30;99.90;;;;;;5116305;28;20016;-73
2023/04/30 10:06:21;;;;;;;3.15;2.13;;;16.30;99.90;;;;;;5116277;28;20072;-72
2023/04/30 10:08:50;;;;;;;5.13;2.25;;;16.40;99.90;;;;;;5116198;28;20027;-72
2023/04/30 10:11:20;;;;;;;7.63;2.00;;;16.40;99.90;;;;;;5120293;28;20038;-72
2023/04/30 10:13:57;;;;;;;2.67;1.55;;;16.40;99.90;;;;;;5120787;28;20031;-73
2023/04/30 10:16:57;;;;;;;2.35;1.83;;;16.40;99.90;;;;;;5119943;28;20023;-73
2023/04/30 10:19:25;;;;;;;1.55;1.40;;;16.50;99.90;;;;;;5120298;28;20051;-72
2023/04/30 10:21:51;;;;;;;3.72;1.63;;;16.60;99.90;;;;;;5119857;28;20016;-73
2023/04/30 10:24:18;;;;;;;2.35;0.90;;;16.70;99.90;;;;;;5120060;28;20023;-72
2023/04/30 10:26:46;;;;;;;1.30;0.60;;;16.80;99.90;;;;;;5120046;28;20027;-73
2023/04/30 10:29:13;;;;;;;1.15;0.85;;;16.90;99.90;;;;;;5121117;28;20046;-73
2023/04/30 10:31:43;;;;;;;0.95;0.82;;;17.00;99.90;;;;;;5120139;28;20029;-73
2023/04/30 10:34:26;;;;;;;1.38;0.73;;;17.10;99.90;;;;;;5121047;28;20022;-73
2023/04/30 10:36:58;;;;;;;3.08;0.63;;;17.20;99.90;;;;;;5120699;28;20034;-72
2023/04/30 10:39:26;;;;;;;1.23;0.80;;;17.30;99.90;;;;;;5119993;28;20023;-72
2023/04/30 10:42:03;;;;;;;2.60;0.90;;;17.40;99.90;;;;;;5119551;28;20070;-72
2023/04/30 10:44:32;;;;;;;1.08;0.70;;;17.40;99.90;;;;;;5120315;28;20035;-73
2023/04/30 10:46:59;;;;;;;2.67;1.42;;;17.50;99.90;;;;;;5119421;28;20054;-72
2023/04/30 10:49:25;;;;;;;1.85;1.00;;;17.60;99.90;;;;;;5119697;28;20063;-72
2023/04/30 10:51:53;;;;;;;1.35;1.00;;;17.70;99.90;;;;;;5120737;28;20077;-74
2023/04/30 10:54:26;;;;;;;2.17;0.90;;;17.80;99.90;;;;;;5120340;28;20020;-72
2023/04/30 10:56:52;;;;;;;2.58;1.00;;;17.70;99.90;;;;;;5119848;28;20020;-72
2023/04/30 10:59:18;;;;;;;4.93;1.10;;;17.70;99.90;;;;;;5119065;28;20027;-74
2023/04/30 11:01:55;;;;;;;1.30;0.70;;;17.80;99.90;;;;;;5119519;28;20027;-73
2023/04/30 11:04:21;;;;;;;4.00;0.93;;;17.90;99.90;;;;;;5119805;28;20020;-73
2023/04/30 11:06:52;;;;;;;2.45;0.95;;;18.00;99.90;;;;;;5119177;28;20027;-73
2023/04/30 11:09:18;;;;;;;;;;;18.00;99.90;;;;;;5119191;28;20027;-73
2023/04/30 11:11:44;;;;;;;1.63;0.85;;;17.90;99.90;;;;;;5119411;28;19910;-72
2023/04/30 11:14:19;;;;;;;2.45;0.80;;;18.00;99.90;;;;;;5118958;28;20023;-72
2023/04/30 11:16:49;;;;;;;2.78;0.60;;;18.10;99.90;;;;;;5120164;28;20045;-73
2023/04/30 11:19:15;;;;;;;0.85;0.60;;;18.10;99.90;;;;;;5120128;28;20073;-73
2023/04/30 11:21:59;;;;;;;3.63;0.60;;;18.10;99.90;;;;;;5118505;28;20023;-72
2023/04/30 11:24:54;;;;;;;1.70;0.98;;;18.20;99.90;;;;;;5118788;28;20031;-72
2023/04/30 11:27:30;;;;;;;0.85;0.57;;;18.30;99.90;;;;;;5119880;28;20024;-72
2023/04/30 11:29:57;;;;;;;0.50;0.50;;;18.20;99.90;;;;;;5119022;28;20077;-72
2023/04/30 11:32:25;;;;;;;1.38;1.10;;;18.20;99.90;;;;;;5119357;28;20024;-72
2023/04/30 11:34:51;;;;;;;1.63;0.73;;;18.20;99.90;;;;;;5118410;28;20023;-72
2023/04/30 11:37:40;;;;;;;1.52;0.45;;;18.20;99.90;;;;;;5119368;28;20027;-73
2023/04/30 11:40:09;;;;;;;3.50;0.85;;;18.20;99.90;;;;;;5118783;28;20016;-73
2023/04/30 11:42:38;;;;;;;3.95;1.13;;;18.30;99.90;;;;;;5118667;28;20020;-73
2023/04/30 11:45:16;;;;;;;0.73;0.70;;;18.40;99.90;;;;;;5118222;28;20023;-71
2023/04/30 11:47:44;;;;;;;1.90;0.50;;;18.40;99.90;;;;;;5118301;28;20045;-73
2023/04/30 11:50:11;;;;;;;1.45;0.60;;;18.50;99.90;;;;;;5128013;22;20070;-72
2023/04/30 11:52:38;;;;;;;0.73;0.60;;;18.50;99.90;;;;;;5097817;28;20020;-72
2023/04/30 11:55:15;;;;;;;1.05;0.50;;;18.50;99.90;;;;;;5097960;28;20016;-72
2023/04/30 11:57:42;;;;;;;0.85;0.60;;;18.60;99.90;;;;;;5097696;28;20028;-72
2023/04/30 12:00:13;;;;;;;0.98;0.70;;;18.80;99.90;;;;;;5098452;28;20046;-72
2023/04/30 12:02:39;;;;;;;1.85;0.60;;;18.80;99.90;;;;;;5097520;28;20043;-72
2023/04/30 12:05:12;;;;;;;0.70;0.47;;;18.70;99.90;;;;;;5097464;28;20031;-72
2023/04/30 12:07:38;;;;;;;1.90;0.70;;;18.80;99.90;;;;;;5097703;28;20024;-72
2023/04/30 12:10:04;;;;;;;1.20;0.60;;;18.70;99.90;;;;;;5098092;28;20047;-72
2023/04/30 12:12:31;;;;;;;1.45;0.82;;;18.70;99.90;;;;;;5097303;28;20031;-74
2023/04/30 12:14:56;;;;;;;0.82;0.40;;;18.70;99.90;;;;;;5097434;28;20024;-72
2023/04/30 12:17:32;;;;;;;1.25;0.65;;;18.90;99.90;;;;;;5097046;28;20028;-73
2023/04/30 12:19:58;;;;;;;1.15;0.70;;;19.10;99.90;;;;;;5097436;28;20035;-72
2023/04/30 12:22:24;;;;;;;2.78;0.65;;;19.10;99.90;;;;;;5097467;28;20020;-72
2023/04/30 12:24:49;;;;;;;0.90;0.50;;;19.20;99.90;;;;;;5096983;28;20030;-71
2023/04/30 12:27:15;;;;;;;0.70;0.60;;;19.60;99.90;;;;;;5097366;28;20062;-71
2023/04/30 12:29:47;;;;;;;0.85;0.70;;;19.80;99.90;;;;;;5098123;28;20020;-71
2023/04/30 12:32:15;;;;;;;1.23;0.80;;;19.90;99.70;;;;;;5097982;28;20024;-71
2023/04/30 12:34:41;;;;;;;0.68;0.50;;;20.10;99.90;;;;;;5096220;28;20031;-71
2023/04/30 12:37:06;;;;;;;1.45;0.68;;;20.60;99.90;;;;;;5097653;28;20028;-71
2023/04/30 12:39:33;;;;;;;0.88;0.80;;;20.80;99.90;;;;;;5097608;28;20114;-70